Time;durP1;ratioP1;P1;durP2;ratioP2;P2;SDS_P1;SDS_P2;PMS_P1;PMS_P2;Temp;Humidity;BMP_temperature;BMP_pressure;BME280_temperature;BME280_humidity;BME280_pressure;Samples;Min_cycle;Max_cycle;Signal;HPM_P1;HPM_P2
2023/11/04 00:00:47;;;;;;;;;;;;;;;9.87;100.00;96615.61;135716;1277;22537;-73
2023/11/04 00:04:10;;;;;;;4.40;0.90;;;;;;;10.00;100.00;96628.19;135735;1277;25323;-72
2023/11/04 00:07:12;;;;;;;3.00;0.90;;;;;;;10.08;100.00;96622.19;135743;1277;22558;-71
2023/11/04 00:10:15;;;;;;;;;;;;;;;10.16;100.00;96621.28;135791;1277;24394;-72
2023/11/04 00:13:18;;;;;;;7.00;1.20;;;;;;;10.16;100.00;96627.54;135744;1277;22636;-71
2023/11/04 00:16:20;;;;;;;;;;;;;;;10.21;100.00;96628.84;135742;1277;22620;-72
2023/11/04 00:19:23;;;;;;;5.50;1.20;;;;;;;10.17;100.00;96630.11;135733;1277;22551;-72
2023/11/04 00:22:25;;;;;;;5.90;1.30;;;;;;;10.25;100.00;96636.47;135743;1278;22541;-72
2023/11/04 00:25:28;;;;;;;;;;;;;;;10.31;100.00;96640.85;135770;1277;24263;-72
2023/11/04 00:28:31;;;;;;;4.70;1.30;;;;;;;10.42;100.00;96645.23;135718;1277;25651;-71
2023/11/04 00:31:34;;;;;;;7.40;1.60;;;;;;;10.53;100.00;96646.48;135758;1278;22564;-73
2023/11/04 00:34:37;;;;;;;6.40;1.80;;;;;;;10.53;100.00;96645.93;135744;1278;22559;-72
2023/11/04 00:37:40;;;;;;;5.00;1.90;;;;;;;10.34;100.00;96652.63;135757;1277;22537;-73
2023/11/04 00:40:42;;;;;;;8.30;2.10;;;;;;;10.44;100.00;96652.56;135751;1277;25400;-71
2023/11/04 00:43:45;;;;;;;;;;;;;;;10.39;100.00;96649.55;135735;1277;22500;-71
2023/11/04 00:46:47;;;;;;;6.20;2.00;;;;;;;10.51;100.00;96654.67;135782;1260;22534;-73
2023/11/04 00:49:50;;;;;;;;;;;;;;;10.59;100.00;96657.30;135721;1269;24183;-73
2023/11/04 00:52:52;;;;;;;10.60;2.50;;;;;;;10.60;100.00;96653.70;135744;1277;25388;-74
2023/11/04 00:55:55;;;;;;;;;;;;;;;10.49;100.00;96657.51;135756;1277;22523;-73
2023/11/04 00:58:58;;;;;;;5.70;1.90;;;;;;;10.51;100.00;96660.12;135749;1277;22541;-74
2023/11/04 01:02:00;;;;;;;;;;;;;;;10.58;100.00;96656.98;135746;1277;22507;-73
2023/11/04 01:05:03;;;;;;;8.40;2.80;;;;;;;10.72;100.00;96665.60;135728;1277;22536;-73
2023/11/04 01:08:05;;;;;;;6.70;2.20;;;;;;;10.71;100.00;96670.28;135717;1277;22530;-73
2023/11/04 01:11:08;;;;;;;;;;;;;;;10.67;100.00;96673.09;135696;1277;22507;-73
2023/11/04 01:14:10;;;;;;;10.40;2.80;;;;;;;10.62;100.00;96677.02;135762;1277;22541;-71
2023/11/04 01:17:13;;;;;;;;;;;;;;;10.52;100.00;96685.16;135750;1277;22520;-71
2023/11/04 01:20:16;;;;;;;10.80;3.30;;;;;;;10.62;100.00;96690.36;135744;1277;22546;-70
2023/11/04 01:23:18;;;;;;;;;;;;;;;10.62;100.00;96694.73;135735;1259;22523;-71
2023/11/04 01:26:21;;;;;;;10.30;3.00;;;;;;;10.76;100.00;96702.84;135697;1277;25350;-71
2023/11/04 01:29:23;;;;;;;;;;;;;;;10.87;100.00;96700.02;135716;1277;22511;-71
2023/11/04 01:32:26;;;;;;;11.70;3.00;;;;;;;10.81;100.00;96704.15;135772;1277;22534;-72
2023/11/04 01:35:28;;;;;;;;;;;;;;;10.85;100.00;96703.92;135741;1277;24187;-73
2023/11/04 01:38:32;;;;;;;11.90;2.80;;;;;;;10.85;100.00;96708.55;135749;1255;22552;-71
2023/11/04 01:41:34;;;;;;;8.80;2.40;;;;;;;10.51;100.00;96706.18;135733;1278;24434;-71
2023/11/04 01:44:37;;;;;;;;;;;;;;;10.45;100.00;96705.03;135766;1277;25594;-71
2023/11/04 01:47:40;;;;;;;7.50;2.30;;;;;;;10.44;100.00;96706.00;135714;1259;22578;-70
2023/11/04 01:50:43;;;;;;;11.50;2.70;;;;;;;10.42;100.00;96710.42;135740;1277;22541;-71
2023/11/04 01:53:45;;;;;;;;;;;;;;;10.34;100.00;96708.52;135759;1277;22508;-72
2023/11/04 01:56:48;;;;;;;10.20;2.40;;;;;;;10.25;100.00;96710.24;135769;1254;22526;-70
2023/11/04 01:59:51;;;;;;;;;;;;;;;10.13;100.00;96701.86;135742;1277;25546;-72
2023/11/04 02:02:53;;;;;;;;;;;;;;;10.07;100.00;96709.80;135760;1277;24371;-70
2023/11/04 02:05:56;;;;;;;12.80;3.30;;;;;;;10.01;100.00;96708.55;135749;1277;22544;-71
2023/11/04 02:09:06;;;;;;;;;;;;;;;9.99;100.00;96712.02;135750;1277;22534;-74
2023/11/04 02:12:09;;;;;;;9.20;2.90;;;;;;;10.02;100.00;96722.27;135732;1277;22691;-73
2023/11/04 02:15:12;;;;;;;10.10;2.80;;;;;;;10.12;100.00;96730.65;135755;1277;22554;-73
2023/11/04 02:18:14;;;;;;;12.00;3.20;;;;;;;10.12;100.00;96740.09;135774;1263;22558;-71
2023/11/04 02:21:17;;;;;;;;;;;;;;;9.98;100.00;96740.61;135751;1262;22511;-73
2023/11/04 02:24:20;;;;;;;8.90;3.00;;;;;;;9.83;100.00;96745.42;135792;1277;22572;-71
2023/11/04 02:27:22;;;;;;;;;;;;;;;9.94;100.00;96742.57;135742;1277;22515;-70
2023/11/04 02:30:25;;;;;;;12.40;3.70;;;;;;;9.98;100.00;96744.45;135686;1259;23332;-73
2023/11/04 02:33:27;;;;;;;;;;;;;;;9.89;100.00;96746.48;135747;1259;22511;-74
2023/11/04 02:36:35;;;;;;;13.80;3.70;;;;;;;9.94;100.00;96753.02;135750;1277;23050;-74
2023/11/04 02:39:41;;;;;;;18.10;3.90;;;;;;;9.92;100.00;96761.02;135734;1277;22568;-73
2023/11/04 02:42:43;;;;;;;11.50;3.50;;;;;;;10.02;100.00;96760.70;135765;1277;22536;-73
2023/11/04 02:45:46;;;;;;;;;;;;;;;10.21;100.00;96769.30;135748;1277;22589;-71
2023/11/04 02:48:49;;;;;;;14.50;3.90;;;;;;;9.94;100.00;96773.09;135702;1277;24225;-74
2023/11/04 02:51:52;;;;;;;14.80;4.10;;;;;;;9.70;100.00;96784.19;135695;1277;23880;-73
2023/11/04 02:54:54;;;;;;;;;;;;;;;9.77;100.00;96784.20;135733;1277;22538;-73
2023/11/04 02:58:09;;;;;;;13.50;3.70;;;;;;;9.76;100.00;96786.64;135648;1277;22533;-72
2023/11/04 03:01:11;;;;;;;15.00;4.40;;;;;;;9.71;100.00;96795.23;135721;1277;22536;-71
2023/11/04 03:04:14;;;;;;;15.00;3.80;;;;;;;9.75;100.00;96802.56;135741;1263;23507;-71
2023/11/04 03:07:17;;;;;;;;;;;;;;;9.61;100.00;96803.34;135766;1278;25354;-71
2023/11/04 03:10:19;;;;;;;14.00;3.60;;;;;;;9.65;100.00;96798.43;135667;1278;24193;-71
2023/11/04 03:13:22;;;;;;;;;;;;;;;9.67;100.00;96803.95;135722;1278;22522;-73
2023/11/04 03:16:27;;;;;;;15.50;4.10;;;;;;;9.65;100.00;96811.27;135778;1278;23922;-71
2023/11/04 03:19:30;;;;;;;16.30;4.50;;;;;;;9.74;100.00;96819.73;135720;1278;22546;-72
2023/11/04 03:22:32;;;;;;;13.60;3.90;;;;;;;9.78;100.00;96823.05;135696;1278;22573;-71
2023/11/04 03:25:35;;;;;;;;;;;;;;;9.99;100.00;96827.28;135777;1278;22511;-71
2023/11/04 03:28:37;;;;;;;13.70;3.80;;;;;;;10.26;100.00;96830.76;135713;1264;22676;-72
2023/11/04 03:31:41;;;;;;;9.90;3.40;;;;;;;10.42;100.00;96838.16;135756;1278;24208;-73
2023/11/04 03:34:43;;;;;;;11.30;3.40;;;;;;;10.32;100.00;96839.37;135730;1278;22642;-74
2023/11/04 03:37:46;;;;;;;;;;;;;;;10.45;100.00;96845.17;135758;1278;22565;-73
2023/11/04 03:40:48;;;;;;;11.10;3.40;;;;;;;10.47;100.00;96848.66;135744;1278;22638;-75
2023/11/04 03:43:51;;;;;;;;;;;;;;;10.56;100.00;96852.55;135726;1278;22515;-73
2023/11/04 03:46:54;;;;;;;;;;;;;;;10.64;100.00;96862.83;135696;1277;22510;-71
2023/11/04 03:49:57;;;;;;;14.00;4.10;;;;;;;10.87;100.00;96861.93;135694;1268;22684;-71
2023/11/04 03:53:00;;;;;;;17.20;4.00;;;;;;;10.93;100.00;96862.60;135692;1278;22530;-75
2023/11/04 03:56:02;;;;;;;;;;;;;;;10.80;100.00;96867.30;135758;1278;22515;-71
2023/11/04 03:59:05;;;;;;;14.70;3.90;;;;;;;10.68;100.00;96869.25;135751;1278;24330;-71
2023/11/04 04:02:08;;;;;;;;;;;;;;;10.58;100.00;96883.10;135754;1278;24207;-71
2023/11/04 04:05:11;;;;;;;17.60;3.80;;;;;;;10.54;100.00;96889.29;135783;1278;22637;-70
2023/11/04 04:08:13;;;;;;;;;;;;;;;10.65;100.00;96891.23;135724;1278;22515;-73
2023/11/04 04:11:16;;;;;;;14.00;4.10;;;;;;;10.77;100.00;96891.58;135698;1277;22759;-73
2023/11/04 04:14:18;;;;;;;;;;;;;;;10.77;100.00;96891.16;135746;1278;22519;-71
2023/11/04 04:17:21;;;;;;;18.30;4.20;;;;;;;10.79;100.00;96890.50;135724;1278;22552;-73
2023/11/04 04:20:23;;;;;;;;;;;;;;;10.71;100.00;96892.56;135736;1260;22567;-71
2023/11/04 04:23:27;;;;;;;18.50;4.70;;;;;;;10.68;100.00;96897.59;135754;1267;22591;-71
2023/11/04 04:26:29;;;;;;;19.40;4.60;;;;;;;10.74;100.00;96904.23;135744;1278;22554;-70
2023/11/04 04:29:32;;;;;;;;;;;;;;;10.75;100.00;96903.78;135716;1278;22516;-70
2023/11/04 04:32:34;;;;;;;13.90;3.90;;;;;;;10.77;100.00;96905.66;135694;1268;22763;-72
2023/11/04 04:35:37;;;;;;;;;;;;;;;10.78;100.00;96910.71;135765;1278;26477;-70
2023/11/04 04:38:39;;;;;;;13.90;4.00;;;;;;;10.79;100.00;96920.87;135762;1267;22538;-74
2023/11/04 04:41:42;;;;;;;;;;;;;;;10.88;100.00;96916.73;135725;1278;22511;-73
2023/11/04 04:44:45;;;;;;;13.40;3.70;;;;;;;10.76;100.00;96917.89;135755;1278;25312;-70
2023/11/04 04:47:47;;;;;;;;;;;;;;;10.72;100.00;96919.92;135747;1278;22636;-71
2023/11/04 04:50:50;;;;;;;15.50;4.30;;;;;;;10.77;100.00;96929.84;135695;1278;22570;-72
2023/11/04 04:53:52;;;;;;;;;;;;;;;10.86;100.00;96933.23;135777;1278;22620;-73
2023/11/04 04:56:55;;;;;;;11.30;3.50;;;;;;;10.67;100.00;96929.88;135766;1278;22530;-73
2023/11/04 04:59:58;;;;;;;;;;;;;;;10.65;100.00;96936.52;135743;1278;22512;-72
2023/11/04 05:03:00;;;;;;;12.60;3.40;;;;;;;10.76;100.00;96934.26;135760;1277;22551;-72
2023/11/04 05:06:09;;;;;;;13.90;3.80;;;;;;;10.82;100.00;96935.79;135751;1277;22534;-72
2023/11/04 05:09:12;;;;;;;15.60;4.10;;;;;;;10.79;100.00;96928.42;135777;1272;24201;-72
2023/11/04 05:12:15;;;;;;;14.70;4.40;;;;;;;10.73;100.00;96925.48;135707;1278;22534;-72
2023/11/04 05:15:18;;;;;;;16.70;4.50;;;;;;;10.86;100.00;96924.98;135712;1278;22530;-73
2023/11/04 05:18:21;;;;;;;16.70;4.00;;;;;;;10.83;100.00;96924.74;135764;1255;22543;-71
2023/11/04 05:21:23;;;;;;;;;;;;;;;10.89;100.00;96928.23;135687;1277;22523;-71
2023/11/04 05:24:26;;;;;;;14.70;4.00;;;;;;;10.86;100.00;96930.76;135666;1278;22527;-72
2023/11/04 05:27:29;;;;;;;23.60;6.80;;;;;;;10.86;100.00;96930.95;135721;1278;22541;-72
2023/11/04 05:30:34;;;;;;;20.30;5.40;;;;;;;11.01;100.00;96941.14;135702;1277;23601;-71
2023/11/04 05:33:37;;;;;;;18.50;5.00;;;;;;;11.41;100.00;96945.78;135767;1267;22959;-72
2023/11/04 05:36:39;;;;;;;17.80;4.60;;;;;;;11.36;100.00;96950.98;135741;1278;22555;-71
2023/11/04 05:39:42;;;;;;;;;;;;;;;11.39;100.00;96957.50;135779;1278;22514;-72
2023/11/04 05:42:45;;;;;;;18.50;3.70;;;;;;;11.54;100.00;96964.87;135699;1278;22546;-72
2023/11/04 05:45:49;;;;;;;17.70;3.70;;;;;;;11.45;100.00;96962.75;135739;1278;22638;-70
2023/11/04 05:48:52;;;;;;;15.30;3.70;;;;;;;11.37;100.00;96972.53;135749;1278;22533;-70
2023/11/04 05:51:55;;;;;;;18.40;4.20;;;;;;;11.50;100.00;96973.98;135718;1278;22593;-72
2023/11/04 05:54:57;;;;;;;;;;;;;;;11.45;100.00;96971.98;135758;1277;22514;-71
2023/11/04 05:58:01;;;;;;;17.20;4.50;;;;;;;11.33;100.00;96968.56;135777;1278;22607;-73
2023/11/04 06:01:06;;;;;;;16.70;4.50;;;;;;;11.29;100.00;96965.20;135730;1277;22672;-72
2023/11/04 06:04:11;;;;;;;12.30;3.50;;;;;;;11.46;100.00;96971.59;135760;1275;22608;-71
2023/11/04 06:07:24;;;;;;;14.00;3.50;;;;;;;11.45;100.00;96973.77;135726;1278;25324;-71
2023/11/04 06:10:27;;;;;;;13.00;3.30;;;;;;;11.45;100.00;96973.94;135699;1260;22537;-72
2023/11/04 06:13:30;;;;;;;;;;;;;;;11.41;100.00;96981.42;135739;1278;22504;-73
2023/11/04 06:16:33;;;;;;;12.80;3.50;;;;;;;11.37;100.00;96983.95;135742;1277;22537;-72
2023/11/04 06:19:35;;;;;;;;;;;;;;;11.30;100.00;96988.44;135740;1278;24484;-72
2023/11/04 06:22:38;;;;;;;10.80;3.30;;;;;;;11.35;100.00;96986.35;135703;1278;22522;-72
2023/11/04 06:25:41;;;;;;;11.90;3.30;;;;;;;11.17;100.00;96992.23;135675;1278;22560;-73
2023/11/04 06:28:43;;;;;;;13.40;3.70;;;;;;;11.42;100.00;96991.57;135730;1270;22688;-71
2023/11/04 06:31:46;;;;;;;;;;;;;;;11.68;100.00;96999.91;135703;1278;22526;-73
2023/11/04 06:34:48;;;;;;;13.10;3.60;;;;;;;11.66;100.00;97009.45;135779;1261;23007;-72
2023/11/04 06:37:52;;;;;;;13.70;3.40;;;;;;;11.67;100.00;97013.38;135706;1278;24243;-71
2023/11/04 06:40:55;;;;;;;14.90;3.40;;;;;;;11.77;100.00;97018.34;135722;1268;24272;-71
2023/11/04 06:43:57;;;;;;;;;;;;;;;11.80;100.00;97019.27;135749;1278;23247;-70
2023/11/04 06:47:00;;;;;;;12.90;3.70;;;;;;;11.95;100.00;97019.66;135743;1278;22540;-70
2023/11/04 06:50:04;;;;;;;;;;;;;;;11.99;100.00;97021.94;135749;1277;22514;-70
2023/11/04 06:53:06;;;;;;;16.30;3.90;;;;;;;11.97;100.00;97026.80;135686;1277;22541;-75
2023/11/04 06:56:09;;;;;;;;;;;;;;;11.99;100.00;97023.88;135724;1278;22535;-75
2023/11/04 06:59:11;;;;;;;16.00;4.00;;;;;;;11.99;100.00;97024.37;135739;1277;22525;-73
2023/11/04 07:02:15;;;;;;;;;;;;;;;11.95;100.00;97020.53;135771;1277;22538;-70
2023/11/04 07:05:17;;;;;;;13.60;3.30;;;;;;;12.22;100.00;97019.58;135751;1268;22534;-72
2023/11/04 07:08:20;;;;;;;13.10;3.30;;;;;;;12.19;100.00;97016.31;135534;1277;172050;-70
2023/11/04 07:11:23;;;;;;;;;;;;;;;12.38;100.00;97014.34;135699;1278;22540;-71
2023/11/04 07:14:25;;;;;;;15.50;4.00;;;;;;;12.59;100.00;97012.41;135737;1277;22587;-72
2023/11/04 07:17:28;;;;;;;;;;;;;;;12.85;100.00;97012.69;135729;1277;22511;-72
2023/11/04 07:20:34;;;;;;;12.90;3.40;;;;;;;12.91;100.00;97007.57;135660;1255;22534;-73
2023/11/04 07:23:40;;;;;;;14.30;3.50;;;;;;;12.59;100.00;97008.27;135712;1275;22635;-72
2023/11/04 07:26:45;;;;;;;15.10;4.00;;;;;;;12.42;100.00;97008.01;135747;1278;24282;-73
2023/11/04 07:29:47;;;;;;;14.30;3.80;;;;;;;12.36;100.00;97008.24;135695;1278;24380;-73
2023/11/04 07:32:50;;;;;;;;;;;;;;;12.54;100.00;97010.45;135664;1277;23818;-74
2023/11/04 07:35:53;;;;;;;;;;;;;;;12.75;100.00;97014.20;135712;1278;22511;-73
2023/11/04 07:38:55;;;;;;;13.80;3.50;;;;;;;12.83;100.00;97016.42;135712;1274;22542;-75
2023/11/04 07:41:58;;;;;;;15.80;4.20;;;;;;;12.76;100.00;97017.46;135675;1277;25874;-73
2023/11/04 07:45:00;;;;;;;;;;;;;;;12.69;100.00;97019.06;135720;1277;24795;-72
2023/11/04 07:48:03;;;;;;;16.00;3.80;;;;;;;12.83;100.00;97027.45;135754;1277;22552;-70
2023/11/04 07:51:07;;;;;;;;;;;;;;;12.99;100.00;97020.52;135715;1278;22566;-70
2023/11/04 07:54:09;;;;;;;19.80;4.10;;;;;;;12.85;100.00;97019.37;135697;1277;22565;-72
2023/11/04 07:57:12;;;;;;;;;;;;;;;12.88;100.00;97010.70;135721;1278;25091;-70
2023/11/04 08:00:14;;;;;;;15.90;3.90;;;;;;;12.86;100.00;97012.77;135726;1277;22541;-70
2023/11/04 08:03:18;;;;;;;20.20;5.60;;;;;;;13.02;100.00;97017.23;135718;1277;22538;-70
2023/11/04 08:06:20;;;;;;;20.40;5.00;;;;;;;13.20;100.00;97023.86;135762;1260;22534;-70
2023/11/04 08:09:23;;;;;;;16.00;3.90;;;;;;;13.30;100.00;97020.58;135738;1277;22527;-70
2023/11/04 08:12:25;;;;;;;;;;;;;;;13.26;100.00;97023.77;135739;1277;22512;-72
2023/11/04 08:15:28;;;;;;;19.70;4.50;;;;;;;13.34;100.00;97023.51;135606;1278;22784;-74
2023/11/04 08:18:31;;;;;;;16.50;4.60;;;;;;;13.57;100.00;97022.25;135629;1278;24202;-73
2023/11/04 08:21:34;;;;;;;21.30;5.70;;;;;;;13.64;100.00;97017.37;135567;1264;22528;-73
2023/11/04 08:24:36;;;;;;;;;;;;;;;13.70;100.00;97010.96;135670;1278;22543;-71
2023/11/04 08:27:39;;;;;;;14.90;4.00;;;;;;;13.74;100.00;97008.73;135673;1278;22531;-71
2023/11/04 08:30:42;;;;;;;15.40;3.80;;;;;;;13.80;100.00;97008.50;135614;1279;22664;-70
2023/11/04 08:33:44;;;;;;;;;;;;;;;13.79;100.00;97014.00;135557;1279;22610;-73
2023/11/04 08:36:47;;;;;;;15.80;3.30;;;;;;;13.94;100.00;97017.73;135543;1279;22567;-72
2023/11/04 08:39:50;;;;;;;20.20;5.40;;;;;;;14.01;100.00;97025.98;135571;1264;22624;-73
2023/11/04 08:42:53;;;;;;;17.10;3.80;;;;;;;14.00;100.00;97026.34;135658;1278;22780;-71
2023/11/04 08:45:56;;;;;;;17.20;4.40;;;;;;;13.92;100.00;97029.80;135620;1276;22540;-71
2023/11/04 08:48:58;;;;;;;23.90;7.10;;;;;;;13.80;100.00;97035.88;135617;1278;22613;-72
2023/11/04 08:52:01;;;;;;;;;;;;;;;13.70;100.00;97034.80;135596;1278;25390;-71
2023/11/04 08:55:05;;;;;;;20.00;5.50;;;;;;;13.48;100.00;97042.69;135612;1278;22579;-73
2023/11/04 08:58:07;;;;;;;17.10;4.40;;;;;;;13.58;100.00;97050.30;135613;1279;22537;-73
2023/11/04 09:01:11;;;;;;;;;;;;;;;13.56;100.00;97043.61;135616;1279;22507;-73
2023/11/04 09:04:14;;;;;;;12.70;3.40;;;;;;;13.56;100.00;97047.83;135570;1279;22551;-73
2023/11/04 09:07:18;;;;;;;;;;;;;;;13.48;100.00;97049.44;135583;1279;22518;-73
2023/11/04 09:10:23;;;;;;;14.00;3.40;;;;;;;13.56;100.00;97046.38;135631;1278;22567;-73
2023/11/04 09:13:27;;;;;;;19.40;4.40;;;;;;;13.70;100.00;97041.95;135707;1278;22538;-72
2023/11/04 09:16:30;;;;;;;14.00;3.60;;;;;;;13.99;100.00;97040.77;135658;1278;22541;-72
2023/11/04 09:19:32;;;;;;;14.10;3.80;;;;;;;13.92;100.00;97034.31;135703;1278;22668;-72
2023/11/04 09:22:35;;;;;;;17.70;3.60;;;;;;;13.91;100.00;97033.71;135678;1278;22530;-73
2023/11/04 09:25:40;;;;;;;;;;;;;;;13.91;100.00;97025.11;135667;1278;25259;-73
2023/11/04 09:28:42;;;;;;;16.00;3.60;;;;;;;14.11;100.00;97022.35;135694;1278;22582;-72
2023/11/04 09:31:45;;;;;;;21.50;4.50;;;;;;;14.11;100.00;97017.08;135686;1278;25230;-72
2023/11/04 09:34:47;;;;;;;;;;;;;;;14.14;100.00;97019.54;135766;1278;22637;-72
2023/11/04 09:37:50;;;;;;;15.20;3.70;;;;;;;14.24;100.00;97019.89;135673;1259;22543;-72
2023/11/04 09:40:53;;;;;;;;;;;;;;;14.19;100.00;97022.70;135705;1278;22507;-72
2023/11/04 09:43:55;;;;;;;15.50;3.60;;;;;;;14.44;100.00;97019.99;135703;1278;22553;-73
2023/11/04 09:46:58;;;;;;;;;;;;;;;14.53;100.00;97017.57;135692;1278;22519;-72
2023/11/04 09:50:01;;;;;;;15.60;3.40;;;;;;;14.69;100.00;97012.58;135661;1278;22530;-72
2023/11/04 09:53:04;;;;;;;15.00;3.20;;;;;;;14.94;100.00;97002.59;135684;1278;22529;-71
2023/11/04 09:56:08;;;;;;;21.30;4.20;;;;;;;14.99;100.00;97000.41;135674;1278;22537;-72
2023/11/04 09:59:11;;;;;;;23.20;5.30;;;;;;;14.99;100.00;97005.36;135637;1278;22561;-71
2023/11/04 10:02:13;;;;;;;;;;;;;;;15.20;100.00;97002.36;135692;1278;25384;-71
2023/11/04 10:05:16;;;;;;;18.20;4.00;;;;;;;15.36;100.00;97000.98;135690;1278;22533;-71
2023/11/04 10:08:18;;;;;;;;;;;;;;;15.44;100.00;96999.84;135700;1278;22526;-72
2023/11/04 10:11:21;;;;;;;14.70;3.30;;;;;;;15.47;100.00;97001.78;135698;1254;22556;-71
2023/11/04 10:14:23;;;;;;;13.50;3.60;;;;;;;15.58;100.00;97000.30;135684;1278;22564;-71
2023/11/04 10:17:26;;;;;;;;;;;;;;;15.66;100.00;96993.37;135727;1278;22624;-72
2023/11/04 10:20:28;;;;;;;16.90;3.80;;;;;;;15.54;100.00;96992.45;135631;1278;25398;-72
2023/11/04 10:23:31;;;;;;;;;;;;;;;15.56;100.00;96986.67;135561;1278;22532;-72
2023/11/04 10:26:33;;;;;;;13.90;3.60;;;;;;;15.72;100.00;96987.67;135447;1259;23013;-72
2023/11/04 10:29:36;;;;;;;14.30;3.50;;;;;;;15.96;100.00;96987.58;135468;1278;22542;-72
2023/11/04 10:32:38;;;;;;;;;;;;;;;16.03;100.00;96986.77;135490;1278;22518;-72
2023/11/04 10:35:41;;;;;;;15.40;3.60;;;;;;;16.18;100.00;96980.48;135441;1278;22552;-72
2023/11/04 10:38:43;;;;;;;19.00;3.80;;;;;;;16.19;100.00;96976.21;135580;1278;22537;-71
2023/11/04 10:41:46;;;;;;;16.20;3.70;;;;;;;16.13;100.00;96977.58;135645;1278;22675;-72
2023/11/04 10:44:49;;;;;;;20.70;5.30;;;;;;;16.03;100.00;96972.62;135688;1278;22569;-72
2023/11/04 10:47:51;;;;;;;17.40;4.10;;;;;;;16.16;100.00;96972.14;135720;1278;22533;-71
2023/11/04 10:50:54;;;;;;;16.70;3.70;;;;;;;16.20;100.00;96973.08;135715;1278;22536;-72
2023/11/04 10:53:56;;;;;;;17.70;3.90;;;;;;;15.97;100.00;96969.24;135701;1260;22566;-72
2023/11/04 10:56:59;;;;;;;14.40;3.60;;;;;;;15.76;100.00;96959.59;135711;1278;22537;-72
2023/11/04 11:00:02;;;;;;;17.30;4.30;;;;;;;15.88;100.00;96963.55;135704;1278;22544;-72
2023/11/04 11:03:05;;;;;;;15.40;4.20;;;;;;;16.12;100.00;96966.37;135658;1275;27173;-73
2023/11/04 11:06:07;;;;;;;17.20;3.70;;;;;;;16.38;100.00;96967.96;135740;1278;22548;-72
2023/11/04 11:09:10;;;;;;;15.10;3.60;;;;;;;16.49;100.00;96961.50;135793;1271;22541;-72
2023/11/04 11:12:13;;;;;;;16.30;4.20;;;;;;;16.63;100.00;96958.98;135695;1278;25476;-72
2023/11/04 11:15:16;;;;;;;18.10;3.90;;;;;;;16.94;100.00;96959.97;135693;1278;22569;-72
2023/11/04 11:18:18;;;;;;;16.20;3.70;;;;;;;16.95;100.00;96961.45;135688;1278;22551;-72
2023/11/04 11:21:21;;;;;;;13.30;3.30;;;;;;;17.05;100.00;96961.20;135705;1278;22686;-72
2023/11/04 11:24:24;;;;;;;16.80;3.50;;;;;;;16.84;100.00;96948.62;135682;1276;22648;-72
2023/11/04 11:27:27;;;;;;;16.40;3.40;;;;;;;16.68;100.00;96950.23;135695;1278;22546;-72
2023/11/04 11:30:29;;;;;;;15.50;3.60;;;;;;;16.57;100.00;96949.40;135662;1278;22537;-72
2023/11/04 11:33:32;;;;;;;13.90;3.00;;;;;;;16.50;100.00;96943.53;135700;1259;22524;-72
2023/11/04 11:36:35;;;;;;;14.70;3.30;;;;;;;16.71;100.00;96937.74;135673;1278;22545;-72
2023/11/04 11:39:37;;;;;;;15.50;3.30;;;;;;;16.79;100.00;96932.61;135742;1278;24238;-72
2023/11/04 11:42:40;;;;;;;16.50;3.60;;;;;;;17.12;100.00;96930.58;135733;1278;25345;-72
2023/11/04 11:45:42;;;;;;;19.00;3.80;;;;;;;17.24;100.00;96929.50;135703;1278;22588;-72
2023/11/04 11:48:45;;;;;;;17.80;3.90;;;;;;;17.20;100.00;96927.14;135699;1278;22536;-72
2023/11/04 11:51:48;;;;;;;13.90;3.20;;;;;;;17.27;100.00;96920.04;135695;1278;22559;-71
2023/11/04 11:54:50;;;;;;;18.60;4.20;;;;;;;17.23;100.00;96919.41;135706;1278;22545;-72
2023/11/04 11:57:53;;;;;;;15.60;3.30;;;;;;;17.28;100.00;96918.74;135698;1278;22605;-72
2023/11/04 12:00:55;;;;;;;14.70;3.10;;;;;;;17.33;100.00;96919.10;135686;1259;22545;-72
2023/11/04 12:04:00;;;;;;;14.80;3.20;;;;;;;17.40;100.00;96918.65;135665;1278;22534;-72
2023/11/04 12:07:03;;;;;;;14.20;3.10;;;;;;;17.58;100.00;96915.02;135657;1278;22551;-72
2023/11/04 12:10:06;;;;;;;11.50;2.70;;;;;;;17.66;100.00;96905.02;135725;1275;22533;-71
2023/11/04 12:13:09;;;;;;;12.10;2.80;;;;;;;17.79;100.00;96899.08;135718;1275;22544;-72
2023/11/04 12:16:12;;;;;;;39.70;10.10;;;;;;;18.00;100.00;96892.73;135677;1278;23887;-72
2023/11/04 12:19:14;;;;;;;28.00;7.00;;;;;;;18.33;100.00;96893.02;135696;1278;22557;-72
2023/11/04 12:22:17;;;;;;;64.00;16.00;;;;;;;18.31;100.00;96895.83;135678;1278;22560;-72
2023/11/04 12:25:19;;;;;;;19.80;3.80;;;;;;;18.51;100.00;96893.05;135447;1278;22564;-72
2023/11/04 12:28:22;;;;;;;43.70;14.40;;;;;;;18.13;100.00;96887.57;135543;1278;24388;-72
2023/11/04 12:31:25;;;;;;;18.50;4.00;;;;;;;17.88;100.00;96883.20;135551;1270;22581;-72
2023/11/04 12:34:27;;;;;;;28.50;8.90;;;;;;;17.60;100.00;96882.30;135663;1270;24252;-71
2023/11/04 12:37:30;;;;;;;14.70;4.10;;;;;;;17.59;100.00;96875.81;135670;1270;25264;-72
2023/11/04 12:40:34;;;;;;;20.10;4.30;;;;;;;17.70;100.00;96870.70;135637;1275;22578;-71
2023/11/04 12:43:36;;;;;;;13.30;3.40;;;;;;;17.72;100.00;96872.70;135677;1270;22533;-71
2023/11/04 12:46:39;;;;;;;15.80;4.00;;;;;;;17.62;100.00;96864.59;135673;1259;22527;-72
2023/11/04 12:49:42;;;;;;;18.60;3.60;;;;;;;17.41;100.00;96865.84;135708;1259;22544;-72
2023/11/04 12:52:45;;;;;;;16.70;4.20;;;;;;;17.27;100.00;96869.48;135678;1278;22544;-72
2023/11/04 12:55:47;;;;;;;17.10;3.80;;;;;;;17.02;100.00;96869.96;135710;1278;22559;-72
2023/11/04 12:58:50;;;;;;;18.50;3.60;;;;;;;16.75;100.00;96872.02;135744;1278;24378;-72
2023/11/04 13:01:53;;;;;;;19.90;4.40;;;;;;;16.58;100.00;96876.79;135722;1259;22538;-72
2023/11/04 13:04:57;;;;;;;23.20;5.30;;;;;;;16.59;100.00;96874.79;135712;1278;22649;-72
2023/11/04 13:08:00;;;;;;;36.00;10.10;;;;;;;16.51;100.00;96872.14;135720;1278;22552;-72
2023/11/04 13:11:03;;;;;;;22.90;6.00;;;;;;;16.49;100.00;96872.01;135731;1278;24224;-72
2023/11/04 13:14:05;;;;;;;17.90;3.90;;;;;;;16.61;100.00;96873.27;135692;1278;25405;-72
2023/11/04 13:17:08;;;;;;;13.00;3.10;;;;;;;16.66;100.00;96874.63;135700;1278;22547;-71
2023/11/04 13:20:10;;;;;;;20.20;4.60;;;;;;;16.69;100.00;96870.76;135697;1278;25527;-72
2023/11/04 13:23:13;;;;;;;17.20;4.20;;;;;;;16.84;100.00;96866.39;135691;1278;23892;-71
2023/11/04 13:26:16;;;;;;;16.20;3.90;;;;;;;17.14;100.00;96864.11;135685;1278;22574;-72
2023/11/04 13:29:18;;;;;;;23.70;6.50;;;;;;;17.19;100.00;96863.70;135710;1278;22527;-72
2023/11/04 13:32:21;;;;;;;16.30;3.30;;;;;;;17.19;100.00;96871.42;135727;1278;22544;-72
2023/11/04 13:35:24;;;;;;;18.20;3.50;;;;;;;16.95;100.00;96874.27;135635;1278;22547;-72
2023/11/04 13:38:26;;;;;;;12.50;3.20;;;;;;;16.75;100.00;96872.59;135572;1278;24210;-72
2023/11/04 13:41:29;;;;;;;18.50;4.30;;;;;;;16.49;100.00;96876.47;135507;1278;22539;-72
2023/11/04 13:44:31;;;;;;;15.90;3.70;;;;;;;16.24;100.00;96885.84;135538;1279;22526;-72
2023/11/04 13:47:35;;;;;;;19.40;3.80;;;;;;;16.03;100.00;96883.82;135583;1279;22534;-72
2023/11/04 13:50:38;;;;;;;13.80;3.20;;;;;;;15.77;100.00;96875.50;135573;1279;24269;-72
2023/11/04 13:53:41;;;;;;;16.20;3.60;;;;;;;15.62;100.00;96876.26;135531;1277;22555;-74
2023/11/04 13:56:44;;;;;;;16.40;4.00;;;;;;;15.54;100.00;96873.75;135564;1279;22543;-72
2023/11/04 13:59:46;;;;;;;20.50;4.10;;;;;;;15.34;100.00;96877.08;135325;1279;22555;-72
2023/11/04 14:02:51;;;;;;;14.50;3.90;;;;;;;15.07;100.00;96877.77;135417;1279;22532;-73
2023/11/04 14:05:54;;;;;;;17.20;4.30;;;;;;;14.98;100.00;96875.61;135498;1279;22589;-72
2023/11/04 14:08:56;;;;;;;17.70;3.60;;;;;;;14.86;100.00;96875.13;135448;1279;22536;-72
2023/11/04 14:11:59;;;;;;;18.40;3.60;;;;;;;14.63;100.00;96878.48;135448;1279;22546;-72
2023/11/04 14:15:01;;;;;;;;;;;;;;;14.48;100.00;96879.38;135553;1279;23153;-73